sensor_id;sensor_type;location;lat;lon;timestamp;P1;durP1;ratioP1;P2;durP2;ratioP2
37955;SDS011;23776;51.592;7.180;2023-04-24T00:01:41;1.08;;;0.52;;
37955;SDS011;23776;51.592;7.180;2023-04-24T00:04:08;3.92;;;1.42;;
37955;SDS011;23776;51.592;7.180;2023-04-24T00:06:36;3.05;;;0.80;;
37955;SDS011;23776;51.592;7.180;2023-04-24T00:09:03;3.35;;;0.57;;
37955;SDS011;23776;51.592;7.180;2023-04-24T00:11:29;2.85;;;0.70;;
37955;SDS011;23776;51.592;7.180;2023-04-24T00:13:55;2.92;;;0.90;;
37955;SDS011;23776;51.592;7.180;2023-04-24T00:16:21;1.38;;;0.63;;
37955;SDS011;23776;51.592;7.180;2023-04-24T00:18:47;0.95;;;0.70;;
37955;SDS011;23776;51.592;7.180;2023-04-24T00:21:13;2.00;;;0.75;;
37955;SDS011;23776;51.592;7.180;2023-04-24T00:23:41;3.88;;;0.82;;
37955;SDS011;23776;51.592;7.180;2023-04-24T00:26:06;0.90;;;0.80;;
37955;SDS011;23776;51.592;7.180;2023-04-24T00:28:32;0.85;;;0.50;;
37955;SDS011;23776;51.592;7.180;2023-04-24T00:30:57;2.08;;;0.70;;
37955;SDS011;23776;51.592;7.180;2023-04-24T00:33:23;3.90;;;1.08;;
37955;SDS011;23776;51.592;7.180;2023-04-24T00:35:48;2.03;;;1.00;;
37955;SDS011;23776;51.592;7.180;2023-04-24T00:38:14;1.98;;;0.80;;
37955;SDS011;23776;51.592;7.180;2023-04-24T00:40:39;1.98;;;0.73;;
37955;SDS011;23776;51.592;7.180;2023-04-24T00:43:05;2.35;;;0.98;;
37955;SDS011;23776;51.592;7.180;2023-04-24T00:45:31;2.53;;;1.23;;
37955;SDS011;23776;51.592;7.180;2023-04-24T00:47:56;3.38;;;1.23;;
37955;SDS011;23776;51.592;7.180;2023-04-24T00:50:23;2.03;;;1.13;;
37955;SDS011;23776;51.592;7.180;2023-04-24T00:52:49;2.72;;;1.10;;
37955;SDS011;23776;51.592;7.180;2023-04-24T00:55:15;2.28;;;0.98;;
37955;SDS011;23776;51.592;7.180;2023-04-24T00:57:41;1.38;;;1.27;;
37955;SDS011;23776;51.592;7.180;2023-04-24T01:00:08;1.58;;;1.00;;
37955;SDS011;23776;51.592;7.180;2023-04-24T01:02:40;4.15;;;1.10;;
37955;SDS011;23776;51.592;7.180;2023-04-24T01:05:11;1.60;;;1.10;;
37955;SDS011;23776;51.592;7.180;2023-04-24T01:07:39;3.25;;;1.08;;
37955;SDS011;23776;51.592;7.180;2023-04-24T01:10:06;2.13;;;1.25;;
37955;SDS011;23776;51.592;7.180;2023-04-24T01:12:33;4.70;;;1.38;;
37955;SDS011;23776;51.592;7.180;2023-04-24T01:14:59;1.85;;;1.13;;
37955;SDS011;23776;51.592;7.180;2023-04-24T01:17:25;6.80;;;1.42;;
37955;SDS011;23776;51.592;7.180;2023-04-24T01:19:50;2.40;;;1.33;;
37955;SDS011;23776;51.592;7.180;2023-04-24T01:22:21;2.55;;;1.50;;
37955;SDS011;23776;51.592;7.180;2023-04-24T01:24:47;3.00;;;1.38;;
37955;SDS011;23776;51.592;7.180;2023-04-24T01:27:13;7.03;;;1.55;;
37955;SDS011;23776;51.592;7.180;2023-04-24T01:29:39;3.55;;;1.70;;
37955;SDS011;23776;51.592;7.180;2023-04-24T01:32:05;5.35;;;1.83;;
37955;SDS011;23776;51.592;7.180;2023-04-24T01:34:31;4.72;;;2.00;;
37955;SDS011;23776;51.592;7.180;2023-04-24T01:36:57;3.53;;;1.83;;
37955;SDS011;23776;51.592;7.180;2023-04-24T01:39:23;3.70;;;2.03;;
37955;SDS011;23776;51.592;7.180;2023-04-24T01:41:50;4.55;;;2.20;;
37955;SDS011;23776;51.592;7.180;2023-04-24T01:44:17;4.05;;;2.63;;
37955;SDS011;23776;51.592;7.180;2023-04-24T01:46:43;4.80;;;2.72;;
37955;SDS011;23776;51.592;7.180;2023-04-24T01:49:09;4.97;;;2.88;;
37955;SDS011;23776;51.592;7.180;2023-04-24T01:51:35;7.43;;;3.88;;
37955;SDS011;23776;51.592;7.180;2023-04-24T01:54:00;9.77;;;4.55;;
37955;SDS011;23776;51.592;7.180;2023-04-24T01:56:27;8.95;;;4.57;;
37955;SDS011;23776;51.592;7.180;2023-04-24T01:58:55;8.90;;;3.75;;
37955;SDS011;23776;51.592;7.180;2023-04-24T02:01:22;6.18;;;3.75;;
37955;SDS011;23776;51.592;7.180;2023-04-24T02:03:49;6.65;;;3.75;;
37955;SDS011;23776;51.592;7.180;2023-04-24T02:06:14;7.13;;;3.47;;
37955;SDS011;23776;51.592;7.180;2023-04-24T02:08:40;9.63;;;3.75;;
37955;SDS011;23776;51.592;7.180;2023-04-24T02:11:06;7.15;;;3.58;;
37955;SDS011;23776;51.592;7.180;2023-04-24T02:13:33;5.10;;;3.65;;
37955;SDS011;23776;51.592;7.180;2023-04-24T02:15:58;7.97;;;3.35;;
37955;SDS011;23776;51.592;7.180;2023-04-24T02:18:24;8.13;;;4.20;;
37955;SDS011;23776;51.592;7.180;2023-04-24T02:20:50;9.38;;;4.30;;
37955;SDS011;23776;51.592;7.180;2023-04-24T02:23:15;8.50;;;4.45;;
37955;SDS011;23776;51.592;7.180;2023-04-24T02:25:41;10.02;;;4.50;;
37955;SDS011;23776;51.592;7.180;2023-04-24T02:28:06;9.38;;;4.38;;
37955;SDS011;23776;51.592;7.180;2023-04-24T02:30:32;7.38;;;4.55;;
37955;SDS011;23776;51.592;7.180;2023-04-24T02:32:57;6.50;;;4.22;;
37955;SDS011;23776;51.592;7.180;2023-04-24T02:35:23;7.13;;;4.30;;
37955;SDS011;23776;51.592;7.180;2023-04-24T02:37:49;9.57;;;5.03;;
37955;SDS011;23776;51.592;7.180;2023-04-24T02:40:14;11.85;;;5.63;;
37955;SDS011;23776;51.592;7.180;2023-04-24T02:42:40;11.35;;;4.95;;
37955;SDS011;23776;51.592;7.180;2023-04-24T02:45:05;10.80;;;6.65;;
37955;SDS011;23776;51.592;7.180;2023-04-24T02:47:31;14.32;;;6.53;;
37955;SDS011;23776;51.592;7.180;2023-04-24T02:49:57;14.27;;;6.45;;
37955;SDS011;23776;51.592;7.180;2023-04-24T02:52:23;11.95;;;6.88;;
37955;SDS011;23776;51.592;7.180;2023-04-24T02:54:48;18.67;;;7.88;;
37955;SDS011;23776;51.592;7.180;2023-04-24T02:57:14;15.40;;;6.97;;
37955;SDS011;23776;51.592;7.180;2023-04-24T02:59:40;15.30;;;8.35;;
37955;SDS011;23776;51.592;7.180;2023-04-24T03:02:05;14.55;;;7.45;;
37955;SDS011;23776;51.592;7.180;2023-04-24T03:04:31;17.52;;;8.50;;
37955;SDS011;23776;51.592;7.180;2023-04-24T03:06:57;14.43;;;8.45;;
37955;SDS011;23776;51.592;7.180;2023-04-24T03:09:22;15.18;;;8.35;;
37955;SDS011;23776;51.592;7.180;2023-04-24T03:11:48;19.05;;;8.73;;
37955;SDS011;23776;51.592;7.180;2023-04-24T03:14:14;19.92;;;9.93;;
37955;SDS011;23776;51.592;7.180;2023-04-24T03:16:40;18.25;;;8.82;;
37955;SDS011;23776;51.592;7.180;2023-04-24T03:19:06;20.67;;;9.93;;
37955;SDS011;23776;51.592;7.180;2023-04-24T03:21:31;21.23;;;9.13;;
37955;SDS011;23776;51.592;7.180;2023-04-24T03:23:57;23.25;;;9.85;;
37955;SDS011;23776;51.592;7.180;2023-04-24T03:26:23;20.67;;;9.60;;
37955;SDS011;23776;51.592;7.180;2023-04-24T03:28:48;20.27;;;11.00;;
37955;SDS011;23776;51.592;7.180;2023-04-24T03:31:14;25.10;;;11.18;;
37955;SDS011;23776;51.592;7.180;2023-04-24T03:33:40;24.27;;;11.45;;
37955;SDS011;23776;51.592;7.180;2023-04-24T03:36:06;30.58;;;11.27;;
37955;SDS011;23776;51.592;7.180;2023-04-24T03:38:31;22.55;;;10.75;;
37955;SDS011;23776;51.592;7.180;2023-04-24T03:40:57;28.80;;;10.90;;
37955;SDS011;23776;51.592;7.180;2023-04-24T03:43:23;23.52;;;11.10;;
37955;SDS011;23776;51.592;7.180;2023-04-24T03:45:48;25.77;;;11.55;;
37955;SDS011;23776;51.592;7.180;2023-04-24T03:48:14;25.45;;;11.20;;
37955;SDS011;23776;51.592;7.180;2023-04-24T03:50:39;26.13;;;11.05;;
37955;SDS011;23776;51.592;7.180;2023-04-24T03:53:05;27.25;;;11.57;;
37955;SDS011;23776;51.592;7.180;2023-04-24T03:55:30;20.98;;;11.27;;
37955;SDS011;23776;51.592;7.180;2023-04-24T03:57:56;23.17;;;11.75;;
37955;SDS011;23776;51.592;7.180;2023-04-24T04:00:22;25.38;;;11.20;;
37955;SDS011;23776;51.592;7.180;2023-04-24T04:02:47;24.75;;;11.52;;
37955;SDS011;23776;51.592;7.180;2023-04-24T04:05:13;32.08;;;12.20;;
37955;SDS011;23776;51.592;7.180;2023-04-24T04:07:38;26.30;;;11.57;;
37955;SDS011;23776;51.592;7.180;2023-04-24T04:10:04;25.52;;;12.13;;
37955;SDS011;23776;51.592;7.180;2023-04-24T04:12:31;23.83;;;11.88;;
37955;SDS011;23776;51.592;7.180;2023-04-24T04:14:57;23.20;;;11.60;;
37955;SDS011;23776;51.592;7.180;2023-04-24T04:17:23;29.17;;;12.05;;
37955;SDS011;23776;51.592;7.180;2023-04-24T04:19:48;23.08;;;11.38;;
37955;SDS011;23776;51.592;7.180;2023-04-24T04:22:14;25.80;;;11.32;;
37955;SDS011;23776;51.592;7.180;2023-04-24T04:24:40;22.92;;;11.85;;
37955;SDS011;23776;51.592;7.180;2023-04-24T04:27:05;25.13;;;11.43;;
37955;SDS011;23776;51.592;7.180;2023-04-24T04:29:31;22.08;;;10.65;;
37955;SDS011;23776;51.592;7.180;2023-04-24T04:31:57;24.52;;;10.98;;
37955;SDS011;23776;51.592;7.180;2023-04-24T04:34:23;27.77;;;11.07;;
37955;SDS011;23776;51.592;7.180;2023-04-24T04:36:49;22.80;;;11.40;;
37955;SDS011;23776;51.592;7.180;2023-04-24T04:39:15;25.42;;;11.55;;
37955;SDS011;23776;51.592;7.180;2023-04-24T04:41:41;26.15;;;11.07;;
37955;SDS011;23776;51.592;7.180;2023-04-24T04:44:07;24.75;;;10.77;;
37955;SDS011;23776;51.592;7.180;2023-04-24T04:46:33;23.17;;;11.75;;
37955;SDS011;23776;51.592;7.180;2023-04-24T04:49:00;23.45;;;10.75;;
37955;SDS011;23776;51.592;7.180;2023-04-24T04:51:26;25.58;;;12.57;;
37955;SDS011;23776;51.592;7.180;2023-04-24T04:53:52;21.90;;;11.52;;
37955;SDS011;23776;51.592;7.180;2023-04-24T04:56:18;17.73;;;11.13;;
37955;SDS011;23776;51.592;7.180;2023-04-24T04:58:44;20.20;;;10.35;;
37955;SDS011;23776;51.592;7.180;2023-04-24T05:01:09;22.00;;;11.18;;
37955;SDS011;23776;51.592;7.180;2023-04-24T05:03:35;25.23;;;12.27;;
37955;SDS011;23776;51.592;7.180;2023-04-24T05:06:01;21.17;;;11.52;;
37955;SDS011;23776;51.592;7.180;2023-04-24T05:08:27;19.20;;;10.80;;
37955;SDS011;23776;51.592;7.180;2023-04-24T05:10:53;18.23;;;10.02;;
37955;SDS011;23776;51.592;7.180;2023-04-24T05:13:20;19.75;;;11.02;;
37955;SDS011;23776;51.592;7.180;2023-04-24T05:15:45;23.02;;;10.48;;
37955;SDS011;23776;51.592;7.180;2023-04-24T05:18:11;25.58;;;9.95;;
37955;SDS011;23776;51.592;7.180;2023-04-24T05:20:37;24.83;;;10.25;;
37955;SDS011;23776;51.592;7.180;2023-04-24T05:23:02;20.77;;;9.65;;
37955;SDS011;23776;51.592;7.180;2023-04-24T05:25:28;16.00;;;8.93;;
37955;SDS011;23776;51.592;7.180;2023-04-24T05:27:54;19.88;;;9.65;;
37955;SDS011;23776;51.592;7.180;2023-04-24T05:30:20;21.83;;;8.57;;
37955;SDS011;23776;51.592;7.180;2023-04-24T05:32:45;21.40;;;9.18;;
37955;SDS011;23776;51.592;7.180;2023-04-24T05:35:11;16.80;;;9.05;;
37955;SDS011;23776;51.592;7.180;2023-04-24T05:37:37;18.73;;;8.55;;
37955;SDS011;23776;51.592;7.180;2023-04-24T05:40:03;18.65;;;9.05;;
37955;SDS011;23776;51.592;7.180;2023-04-24T05:42:30;18.58;;;9.23;;
37955;SDS011;23776;51.592;7.180;2023-04-24T05:44:56;19.08;;;8.82;;
37955;SDS011;23776;51.592;7.180;2023-04-24T05:47:21;18.30;;;8.45;;
37955;SDS011;23776;51.592;7.180;2023-04-24T05:49:47;16.23;;;8.10;;
37955;SDS011;23776;51.592;7.180;2023-04-24T05:52:13;18.25;;;8.80;;
37955;SDS011;23776;51.592;7.180;2023-04-24T05:54:39;14.52;;;8.32;;
37955;SDS011;23776;51.592;7.180;2023-04-24T05:57:04;16.15;;;8.23;;
37955;SDS011;23776;51.592;7.180;2023-04-24T05:59:36;20.67;;;9.15;;
37955;SDS011;23776;51.592;7.180;2023-04-24T06:02:05;16.65;;;9.43;;
37955;SDS011;23776;51.592;7.180;2023-04-24T06:04:31;17.33;;;9.25;;
37955;SDS011;23776;51.592;7.180;2023-04-24T06:06:57;15.23;;;9.55;;
37955;SDS011;23776;51.592;7.180;2023-04-24T06:09:23;16.60;;;9.50;;
37955;SDS011;23776;51.592;7.180;2023-04-24T06:11:49;18.73;;;9.48;;
37955;SDS011;23776;51.592;7.180;2023-04-24T06:14:17;21.73;;;9.43;;
37955;SDS011;23776;51.592;7.180;2023-04-24T06:16:43;18.73;;;9.75;;
37955;SDS011;23776;51.592;7.180;2023-04-24T06:19:09;22.83;;;10.70;;
37955;SDS011;23776;51.592;7.180;2023-04-24T06:21:35;19.98;;;9.88;;
37955;SDS011;23776;51.592;7.180;2023-04-24T06:24:00;20.77;;;9.88;;
37955;SDS011;23776;51.592;7.180;2023-04-24T06:26:27;18.75;;;10.18;;
37955;SDS011;23776;51.592;7.180;2023-04-24T06:28:52;20.88;;;8.98;;
37955;SDS011;23776;51.592;7.180;2023-04-24T06:31:23;17.38;;;9.30;;
37955;SDS011;23776;51.592;7.180;2023-04-24T06:33:49;18.30;;;9.63;;
37955;SDS011;23776;51.592;7.180;2023-04-24T06:36:14;19.42;;;9.32;;
37955;SDS011;23776;51.592;7.180;2023-04-24T06:38:40;15.35;;;9.13;;
37955;SDS011;23776;51.592;7.180;2023-04-24T06:41:06;21.13;;;8.93;;
37955;SDS011;23776;51.592;7.180;2023-04-24T06:43:32;14.35;;;8.13;;
37955;SDS011;23776;51.592;7.180;2023-04-24T06:45:58;16.85;;;8.27;;
37955;SDS011;23776;51.592;7.180;2023-04-24T06:48:25;13.60;;;8.15;;
37955;SDS011;23776;51.592;7.180;2023-04-24T06:50:51;17.40;;;8.80;;
37955;SDS011;23776;51.592;7.180;2023-04-24T06:53:17;15.80;;;8.25;;
37955;SDS011;23776;51.592;7.180;2023-04-24T06:55:42;13.70;;;7.47;;
37955;SDS011;23776;51.592;7.180;2023-04-24T06:58:10;17.13;;;8.02;;
37955;SDS011;23776;51.592;7.180;2023-04-24T07:00:35;15.77;;;8.30;;
37955;SDS011;23776;51.592;7.180;2023-04-24T07:03:01;13.30;;;7.30;;
37955;SDS011;23776;51.592;7.180;2023-04-24T07:05:27;19.30;;;7.75;;
37955;SDS011;23776;51.592;7.180;2023-04-24T07:07:53;12.68;;;7.43;;
37955;SDS011;23776;51.592;7.180;2023-04-24T07:10:19;16.38;;;7.55;;
37955;SDS011;23776;51.592;7.180;2023-04-24T07:12:45;14.68;;;7.57;;
37955;SDS011;23776;51.592;7.180;2023-04-24T07:15:11;12.90;;;7.45;;
37955;SDS011;23776;51.592;7.180;2023-04-24T07:17:37;13.30;;;6.80;;
37955;SDS011;23776;51.592;7.180;2023-04-24T07:20:08;11.27;;;6.50;;
37955;SDS011;23776;51.592;7.180;2023-04-24T07:22:35;11.32;;;6.32;;
37955;SDS011;23776;51.592;7.180;2023-04-24T07:25:02;12.10;;;6.50;;
37955;SDS011;23776;51.592;7.180;2023-04-24T07:27:28;10.30;;;5.32;;
37955;SDS011;23776;51.592;7.180;2023-04-24T07:29:53;12.07;;;5.60;;
37955;SDS011;23776;51.592;7.180;2023-04-24T07:32:19;7.68;;;5.05;;
37955;SDS011;23776;51.592;7.180;2023-04-24T07:34:45;10.68;;;5.20;;
37955;SDS011;23776;51.592;7.180;2023-04-24T07:37:10;8.68;;;5.18;;
37955;SDS011;23776;51.592;7.180;2023-04-24T07:39:36;8.32;;;5.15;;
37955;SDS011;23776;51.592;7.180;2023-04-24T07:42:02;8.75;;;5.45;;
37955;SDS011;23776;51.592;7.180;2023-04-24T07:44:28;6.97;;;5.03;;
37955;SDS011;23776;51.592;7.180;2023-04-24T07:46:54;12.13;;;4.80;;
37955;SDS011;23776;51.592;7.180;2023-04-24T07:49:20;7.15;;;4.07;;
37955;SDS011;23776;51.592;7.180;2023-04-24T07:51:46;7.05;;;4.35;;
37955;SDS011;23776;51.592;7.180;2023-04-24T07:54:12;6.18;;;3.95;;
37955;SDS011;23776;51.592;7.180;2023-04-24T07:56:37;6.97;;;3.55;;
37955;SDS011;23776;51.592;7.180;2023-04-24T07:59:04;8.15;;;3.58;;
37955;SDS011;23776;51.592;7.180;2023-04-24T08:01:30;5.35;;;3.08;;
37955;SDS011;23776;51.592;7.180;2023-04-24T08:03:55;5.88;;;2.75;;
37955;SDS011;23776;51.592;7.180;2023-04-24T08:06:21;4.82;;;2.65;;
37955;SDS011;23776;51.592;7.180;2023-04-24T08:08:47;7.70;;;2.50;;
37955;SDS011;23776;51.592;7.180;2023-04-24T08:11:13;3.85;;;2.75;;
37955;SDS011;23776;51.592;7.180;2023-04-24T08:13:38;4.35;;;2.67;;
37955;SDS011;23776;51.592;7.180;2023-04-24T08:16:04;4.25;;;2.08;;
37955;SDS011;23776;51.592;7.180;2023-04-24T08:18:30;3.15;;;1.80;;
37955;SDS011;23776;51.592;7.180;2023-04-24T08:20:55;5.00;;;2.50;;
37955;SDS011;23776;51.592;7.180;2023-04-24T08:23:26;4.88;;;2.53;;
37955;SDS011;23776;51.592;7.180;2023-04-24T08:25:51;5.43;;;2.33;;
37955;SDS011;23776;51.592;7.180;2023-04-24T08:28:17;5.57;;;2.72;;
37955;SDS011;23776;51.592;7.180;2023-04-24T08:30:45;4.60;;;1.88;;
37955;SDS011;23776;51.592;7.180;2023-04-24T08:33:12;2.08;;;1.73;;
37955;SDS011;23776;51.592;7.180;2023-04-24T08:35:37;3.42;;;1.98;;
37955;SDS011;23776;51.592;7.180;2023-04-24T08:38:03;1.95;;;1.40;;
37955;SDS011;23776;51.592;7.180;2023-04-24T08:40:29;2.92;;;1.75;;
37955;SDS011;23776;51.592;7.180;2023-04-24T08:42:59;2.22;;;1.70;;
37955;SDS011;23776;51.592;7.180;2023-04-24T08:45:25;3.65;;;1.75;;
37955;SDS011;23776;51.592;7.180;2023-04-24T08:47:51;4.78;;;1.70;;
37955;SDS011;23776;51.592;7.180;2023-04-24T08:50:19;4.90;;;2.10;;
37955;SDS011;23776;51.592;7.180;2023-04-24T08:52:47;5.30;;;1.80;;
37955;SDS011;23776;51.592;7.180;2023-04-24T08:55:14;6.72;;;2.42;;
37955;SDS011;23776;51.592;7.180;2023-04-24T08:57:43;4.25;;;2.70;;
37955;SDS011;23776;51.592;7.180;2023-04-24T09:00:10;3.83;;;2.80;;
37955;SDS011;23776;51.592;7.180;2023-04-24T09:02:36;5.95;;;3.10;;
37955;SDS011;23776;51.592;7.180;2023-04-24T09:05:06;7.00;;;3.45;;
37955;SDS011;23776;51.592;7.180;2023-04-24T09:07:34;6.38;;;4.03;;
37955;SDS011;23776;51.592;7.180;2023-04-24T09:10:01;5.75;;;3.83;;
37955;SDS011;23776;51.592;7.180;2023-04-24T09:12:27;7.75;;;4.20;;
37955;SDS011;23776;51.592;7.180;2023-04-24T09:14:53;11.35;;;4.35;;
37955;SDS011;23776;51.592;7.180;2023-04-24T09:17:20;16.17;;;6.85;;
37955;SDS011;23776;51.592;7.180;2023-04-24T09:19:47;6.85;;;4.45;;
37955;SDS011;23776;51.592;7.180;2023-04-24T09:22:13;7.85;;;4.60;;
37955;SDS011;23776;51.592;7.180;2023-04-24T09:24:40;7.35;;;4.70;;
37955;SDS011;23776;51.592;7.180;2023-04-24T09:27:10;7.45;;;4.80;;
37955;SDS011;23776;51.592;7.180;2023-04-24T09:29:37;11.88;;;4.95;;
37955;SDS011;23776;51.592;7.180;2023-04-24T09:32:19;6.07;;;4.15;;
37955;SDS011;23776;51.592;7.180;2023-04-24T09:35:04;5.47;;;4.03;;
37955;SDS011;23776;51.592;7.180;2023-04-24T09:37:41;5.53;;;3.20;;
37955;SDS011;23776;51.592;7.180;2023-04-24T09:40:08;4.72;;;2.33;;
37955;SDS011;23776;51.592;7.180;2023-04-24T09:42:36;3.88;;;2.05;;
37955;SDS011;23776;51.592;7.180;2023-04-24T09:45:02;4.80;;;1.80;;
37955;SDS011;23776;51.592;7.180;2023-04-24T09:47:37;2.67;;;1.50;;
37955;SDS011;23776;51.592;7.180;2023-04-24T09:50:10;2.10;;;1.70;;
37955;SDS011;23776;51.592;7.180;2023-04-24T09:52:39;4.10;;;1.42;;
37955;SDS011;23776;51.592;7.180;2023-04-24T09:55:20;2.00;;;1.45;;
37955;SDS011;23776;51.592;7.180;2023-04-24T10:00:28;3.28;;;1.98;;
37955;SDS011;23776;51.592;7.180;2023-04-24T10:05:28;6.22;;;3.45;;
37955;SDS011;23776;51.592;7.180;2023-04-24T10:07:56;8.73;;;3.65;;
37955;SDS011;23776;51.592;7.180;2023-04-24T10:10:25;8.10;;;4.78;;
37955;SDS011;23776;51.592;7.180;2023-04-24T10:12:51;9.75;;;4.45;;
37955;SDS011;23776;51.592;7.180;2023-04-24T10:15:18;17.27;;;6.10;;
37955;SDS011;23776;51.592;7.180;2023-04-24T10:17:49;13.02;;;5.78;;
37955;SDS011;23776;51.592;7.180;2023-04-24T10:20:22;9.30;;;5.68;;
37955;SDS011;23776;51.592;7.180;2023-04-24T10:22:50;12.95;;;6.25;;
37955;SDS011;23776;51.592;7.180;2023-04-24T10:25:18;10.07;;;5.50;;
37955;SDS011;23776;51.592;7.180;2023-04-24T10:27:45;13.93;;;5.68;;
37955;SDS011;23776;51.592;7.180;2023-04-24T10:30:12;13.18;;;5.40;;
37955;SDS011;23776;51.592;7.180;2023-04-24T10:32:39;11.70;;;6.60;;
37955;SDS011;23776;51.592;7.180;2023-04-24T10:35:06;15.02;;;6.85;;
37955;SDS011;23776;51.592;7.180;2023-04-24T10:37:54;11.43;;;6.43;;
37955;SDS011;23776;51.592;7.180;2023-04-24T10:40:41;14.65;;;7.60;;
37955;SDS011;23776;51.592;7.180;2023-04-24T10:43:08;13.73;;;7.13;;
37955;SDS011;23776;51.592;7.180;2023-04-24T10:45:37;14.13;;;7.88;;
37955;SDS011;23776;51.592;7.180;2023-04-24T10:48:09;12.65;;;6.70;;
37955;SDS011;23776;51.592;7.180;2023-04-24T10:50:42;17.23;;;7.47;;
37955;SDS011;23776;51.592;7.180;2023-04-24T10:53:18;13.95;;;6.07;;
37955;SDS011;23776;51.592;7.180;2023-04-24T10:55:50;19.67;;;6.80;;
37955;SDS011;23776;51.592;7.180;2023-04-24T10:58:21;21.08;;;7.68;;
37955;SDS011;23776;51.592;7.180;2023-04-24T11:00:55;18.27;;;6.43;;
37955;SDS011;23776;51.592;7.180;2023-04-24T11:03:23;21.98;;;7.28;;
37955;SDS011;23776;51.592;7.180;2023-04-24T11:06:06;15.88;;;6.32;;
37955;SDS011;23776;51.592;7.180;2023-04-24T11:21:42;23.95;;;6.55;;
37955;SDS011;23776;51.592;7.180;2023-04-24T11:29:40;21.67;;;7.97;;
37955;SDS011;23776;51.592;7.180;2023-04-24T11:34:55;20.98;;;7.72;;
37955;SDS011;23776;51.592;7.180;2023-04-24T11:37:36;20.35;;;6.75;;
37955;SDS011;23776;51.592;7.180;2023-04-24T11:40:06;22.35;;;7.05;;
37955;SDS011;23776;51.592;7.180;2023-04-24T11:42:37;26.13;;;7.57;;
37955;SDS011;23776;51.592;7.180;2023-04-24T11:45:11;15.05;;;5.90;;
37955;SDS011;23776;51.592;7.180;2023-04-24T11:47:37;25.65;;;7.45;;
37955;SDS011;23776;51.592;7.180;2023-04-24T11:50:04;16.90;;;6.30;;
37955;SDS011;23776;51.592;7.180;2023-04-24T11:52:31;20.65;;;5.82;;
37955;SDS011;23776;51.592;7.180;2023-04-24T11:54:59;17.20;;;5.97;;
37955;SDS011;23776;51.592;7.180;2023-04-24T11:57:25;19.00;;;5.43;;
37955;SDS011;23776;51.592;7.180;2023-04-24T11:59:59;26.08;;;5.90;;
37955;SDS011;23776;51.592;7.180;2023-04-24T12:02:26;17.50;;;6.43;;
37955;SDS011;23776;51.592;7.180;2023-04-24T12:04:52;13.15;;;5.80;;
37955;SDS011;23776;51.592;7.180;2023-04-24T12:07:19;18.52;;;6.50;;
37955;SDS011;23776;51.592;7.180;2023-04-24T12:09:48;18.77;;;6.10;;
37955;SDS011;23776;51.592;7.180;2023-04-24T12:12:20;15.15;;;5.90;;
37955;SDS011;23776;51.592;7.180;2023-04-24T12:15:28;13.35;;;5.38;;
37955;SDS011;23776;51.592;7.180;2023-04-24T12:17:35;13.55;;;4.15;;
37955;SDS011;23776;51.592;7.180;2023-04-24T12:20:06;13.10;;;3.65;;
37955;SDS011;23776;51.592;7.180;2023-04-24T12:22:43;11.10;;;4.10;;
37955;SDS011;23776;51.592;7.180;2023-04-24T12:25:13;8.40;;;3.40;;
37955;SDS011;23776;51.592;7.180;2023-04-24T12:27:39;12.40;;;4.47;;
37955;SDS011;23776;51.592;7.180;2023-04-24T12:30:05;12.65;;;4.47;;
37955;SDS011;23776;51.592;7.180;2023-04-24T12:32:35;11.43;;;4.07;;
37955;SDS011;23776;51.592;7.180;2023-04-24T12:35:06;7.35;;;3.45;;
37955;SDS011;23776;51.592;7.180;2023-04-24T12:37:33;10.43;;;3.00;;
37955;SDS011;23776;51.592;7.180;2023-04-24T12:40:02;16.10;;;3.80;;
37955;SDS011;23776;51.592;7.180;2023-04-24T12:42:28;15.82;;;3.40;;
37955;SDS011;23776;51.592;7.180;2023-04-24T12:44:56;11.68;;;4.00;;
37955;SDS011;23776;51.592;7.180;2023-04-24T12:47:27;14.40;;;4.32;;
37955;SDS011;23776;51.592;7.180;2023-04-24T12:49:53;15.70;;;5.93;;
37955;SDS011;23776;51.592;7.180;2023-04-24T12:52:20;13.52;;;4.47;;
37955;SDS011;23776;51.592;7.180;2023-04-24T12:54:52;15.27;;;4.50;;
37955;SDS011;23776;51.592;7.180;2023-04-24T12:57:19;16.73;;;4.10;;
37955;SDS011;23776;51.592;7.180;2023-04-24T12:59:44;9.45;;;4.22;;
37955;SDS011;23776;51.592;7.180;2023-04-24T13:02:10;14.65;;;4.35;;
37955;SDS011;23776;51.592;7.180;2023-04-24T13:04:36;14.05;;;3.90;;
37955;SDS011;23776;51.592;7.180;2023-04-24T13:07:02;13.10;;;3.42;;
37955;SDS011;23776;51.592;7.180;2023-04-24T13:09:30;9.70;;;3.80;;
37955;SDS011;23776;51.592;7.180;2023-04-24T13:11:55;11.35;;;3.72;;
37955;SDS011;23776;51.592;7.180;2023-04-24T13:14:22;5.05;;;3.17;;
37955;SDS011;23776;51.592;7.180;2023-04-24T13:16:48;9.88;;;3.28;;
37955;SDS011;23776;51.592;7.180;2023-04-24T13:19:14;14.63;;;2.90;;
37955;SDS011;23776;51.592;7.180;2023-04-24T13:21:40;11.38;;;2.80;;
37955;SDS011;23776;51.592;7.180;2023-04-24T13:24:05;14.75;;;2.83;;
37955;SDS011;23776;51.592;7.180;2023-04-24T13:26:32;11.00;;;3.42;;
37955;SDS011;23776;51.592;7.180;2023-04-24T13:28:58;5.88;;;2.28;;
37955;SDS011;23776;51.592;7.180;2023-04-24T13:31:24;4.43;;;2.45;;
37955;SDS011;23776;51.592;7.180;2023-04-24T13:33:50;4.43;;;2.53;;
37955;SDS011;23776;51.592;7.180;2023-04-24T13:36:16;8.07;;;2.63;;
37955;SDS011;23776;51.592;7.180;2023-04-24T13:38:44;7.40;;;2.42;;
37955;SDS011;23776;51.592;7.180;2023-04-24T13:41:10;6.97;;;2.42;;
37955;SDS011;23776;51.592;7.180;2023-04-24T13:43:35;5.65;;;2.70;;
37955;SDS011;23776;51.592;7.180;2023-04-24T13:46:01;5.72;;;2.88;;
37955;SDS011;23776;51.592;7.180;2023-04-24T13:48:28;6.97;;;2.80;;
37955;SDS011;23776;51.592;7.180;2023-04-24T13:50:54;5.07;;;3.72;;
37955;SDS011;23776;51.592;7.180;2023-04-24T13:53:20;8.77;;;2.88;;
37955;SDS011;23776;51.592;7.180;2023-04-24T13:55:46;8.50;;;2.60;;
37955;SDS011;23776;51.592;7.180;2023-04-24T13:58:11;6.57;;;2.72;;
37955;SDS011;23776;51.592;7.180;2023-04-24T14:00:37;6.60;;;2.60;;
37955;SDS011;23776;51.592;7.180;2023-04-24T14:03:03;4.28;;;2.45;;
37955;SDS011;23776;51.592;7.180;2023-04-24T14:05:28;8.68;;;2.88;;
37955;SDS011;23776;51.592;7.180;2023-04-24T14:07:54;5.55;;;2.40;;
37955;SDS011;23776;51.592;7.180;2023-04-24T14:10:20;5.60;;;2.40;;
37955;SDS011;23776;51.592;7.180;2023-04-24T14:12:45;7.43;;;3.65;;
37955;SDS011;23776;51.592;7.180;2023-04-24T14:15:11;8.65;;;3.03;;
37955;SDS011;23776;51.592;7.180;2023-04-24T14:17:38;6.20;;;2.30;;
37955;SDS011;23776;51.592;7.180;2023-04-24T14:20:04;5.03;;;2.53;;
37955;SDS011;23776;51.592;7.180;2023-04-24T14:22:30;8.98;;;3.10;;
37955;SDS011;23776;51.592;7.180;2023-04-24T14:24:56;4.88;;;3.55;;
37955;SDS011;23776;51.592;7.180;2023-04-24T14:27:21;6.60;;;2.75;;
37955;SDS011;23776;51.592;7.180;2023-04-24T14:29:47;6.72;;;2.45;;
37955;SDS011;23776;51.592;7.180;2023-04-24T14:32:12;8.23;;;2.95;;
37955;SDS011;23776;51.592;7.180;2023-04-24T14:34:40;7.30;;;2.83;;
37955;SDS011;23776;51.592;7.180;2023-04-24T14:37:06;4.13;;;2.40;;
37955;SDS011;23776;51.592;7.180;2023-04-24T14:39:32;5.70;;;2.42;;
37955;SDS011;23776;51.592;7.180;2023-04-24T14:41:58;5.70;;;2.58;;
37955;SDS011;23776;51.592;7.180;2023-04-24T14:44:23;9.38;;;3.75;;
37955;SDS011;23776;51.592;7.180;2023-04-24T14:46:50;6.28;;;2.85;;
37955;SDS011;23776;51.592;7.180;2023-04-24T14:49:15;11.85;;;4.30;;
37955;SDS011;23776;51.592;7.180;2023-04-24T14:51:41;39.28;;;12.20;;
37955;SDS011;23776;51.592;7.180;2023-04-24T14:54:07;8.55;;;4.25;;
37955;SDS011;23776;51.592;7.180;2023-04-24T14:56:33;15.98;;;4.85;;
37955;SDS011;23776;51.592;7.180;2023-04-24T14:58:59;17.48;;;4.60;;
37955;SDS011;23776;51.592;7.180;2023-04-24T15:01:24;10.15;;;4.15;;
37955;SDS011;23776;51.592;7.180;2023-04-24T15:03:50;11.27;;;3.88;;